C6042 KFMH-KFMH
Flight info
| Callsign | C6042 |
|---|---|
| Flight time | N/A |
| Altitude | 4000 |
| Route | ACK |
| Aircraft | H60/L-G/SB2 |
Departure
| Time | 2026-05-07 06:21 |
|---|---|
| Airport | Cape Cod Coast Guard Air Station (KFMH) |
Arrival
| Time | N/A |
|---|---|
| Airport | Cape Cod Coast Guard Air Station (KFMH) |
| Time | Latitude | Longitude | Altitude | Speed | Heading |
|---|---|---|---|---|---|
| 2026-05-07 06:17 | 41.66517 | -70.52089 | 127 ft | 0 kts | 170° |
| 2026-05-07 06:18 | 41.66512 | -70.52087 | 131 ft | 3 kts | 166° |
| 2026-05-07 06:18 | 41.66492 | -70.52077 | 142 ft | 2 kts | 159° |
| 2026-05-07 06:18 | 41.66481 | -70.52071 | 195 ft | 1 kts | 157° |
| 2026-05-07 06:19 | 41.66474 | -70.52066 | 274 ft | 1 kts | 156° |
| 2026-05-07 06:19 | 41.66469 | -70.52063 | 371 ft | 1 kts | 156° |
| 2026-05-07 06:19 | 41.66253 | -70.52045 | 564 ft | 76 kts | 161° |
| 2026-05-07 06:19 | 41.65448 | -70.52020 | 591 ft | 147 kts | 169° |
| 2026-05-07 06:20 | 41.64946 | -70.51613 | 616 ft | 158 kts | 148° |
| 2026-05-07 06:21 | 41.64876 | -70.51544 | 627 ft | 158 kts | 148° |
| 2026-05-07 06:21 | 41.64077 | -70.50578 | 1002 ft | 152 kts | 139° |
| 2026-05-07 06:21 | 41.63442 | -70.49466 | 1552 ft | 154 kts | 128° |
| 2026-05-07 06:21 | 41.62849 | -70.48184 | 1816 ft | 171 kts | 126° |
| 2026-05-07 06:22 | 41.62070 | -70.46899 | 1783 ft | 183 kts | 138° |
| 2026-05-07 06:22 | 41.60243 | -70.44522 | 1770 ft | 187 kts | 136° |
| 2026-05-07 06:22 | 41.59506 | -70.43104 | 1784 ft | 183 kts | 124° |
| 2026-05-07 06:23 | 41.58764 | -70.41785 | 2012 ft | 172 kts | 135° |
| 2026-05-07 06:23 | 41.57776 | -70.40937 | 2197 ft | 170 kts | 158° |
| 2026-05-07 06:23 | 41.56851 | -70.39937 | 2368 ft | 172 kts | 139° |
| 2026-05-07 06:23 | 41.55989 | -70.38816 | 2750 ft | 172 kts | 139° |
| 2026-05-07 06:24 | 41.55125 | -70.37696 | 2936 ft | 175 kts | 139° |
| 2026-05-07 06:24 | 41.54261 | -70.36561 | 2901 ft | 174 kts | 139° |
| 2026-05-07 06:24 | 41.53404 | -70.35430 | 2923 ft | 174 kts | 139° |
| 2026-05-07 06:24 | 41.52546 | -70.34296 | 2931 ft | 173 kts | 139° |
| 2026-05-07 06:25 | 41.51677 | -70.33164 | 2942 ft | 174 kts | 139° |
| 2026-05-07 06:25 | 41.50818 | -70.32034 | 2942 ft | 173 kts | 139° |
| 2026-05-07 06:25 | 41.49959 | -70.30904 | 2946 ft | 174 kts | 139° |
| 2026-05-07 06:25 | 41.49098 | -70.29771 | 2948 ft | 174 kts | 139° |
| 2026-05-07 06:26 | 41.48232 | -70.28638 | 2948 ft | 175 kts | 139° |
| 2026-05-07 06:26 | 41.47362 | -70.27503 | 2949 ft | 175 kts | 139° |
| 2026-05-07 06:26 | 41.46494 | -70.26372 | 2948 ft | 174 kts | 139° |
| 2026-05-07 06:26 | 41.45627 | -70.25250 | 2949 ft | 173 kts | 139° |
| 2026-05-07 06:27 | 41.44764 | -70.24129 | 2943 ft | 173 kts | 139° |
| 2026-05-07 06:27 | 41.43901 | -70.23011 | 2948 ft | 173 kts | 139° |
| 2026-05-07 06:27 | 41.43037 | -70.21881 | 2949 ft | 175 kts | 139° |
| 2026-05-07 06:27 | 41.42145 | -70.20733 | 2945 ft | 184 kts | 139° |
| 2026-05-07 06:28 | 41.41235 | -70.19593 | 2975 ft | 173 kts | 142° |
| 2026-05-07 06:28 | 41.40165 | -70.18848 | 2777 ft | 178 kts | 166° |
| 2026-05-07 06:28 | 41.38902 | -70.18422 | 2308 ft | 200 kts | 171° |
| 2026-05-07 06:28 | 41.37784 | -70.18233 | 1684 ft | 208 kts | 179° |
| 2026-05-07 06:29 | 41.37577 | -70.18217 | 1600 ft | 207 kts | 181° |
| 2026-05-07 06:29 | 41.36207 | -70.18052 | 1669 ft | 186 kts | 178° |
| 2026-05-07 06:29 | 41.34928 | -70.17895 | 1925 ft | 186 kts | 178° |
| 2026-05-07 06:30 | 41.33611 | -70.17805 | 1883 ft | 193 kts | 184° |
| 2026-05-07 06:30 | 41.32277 | -70.17792 | 1867 ft | 193 kts | 185° |
| 2026-05-07 06:30 | 41.30913 | -70.17869 | 1576 ft | 199 kts | 187° |
| 2026-05-07 06:30 | 41.29580 | -70.17881 | 1712 ft | 181 kts | 182° |
| 2026-05-07 06:31 | 41.28304 | -70.17816 | 1912 ft | 192 kts | 182° |
| 2026-05-07 06:31 | 41.26896 | -70.17591 | 1174 ft | 216 kts | 165° |
| 2026-05-07 06:31 | 41.25540 | -70.17098 | 957 ft | 183 kts | 174° |
| 2026-05-07 06:31 | 41.24451 | -70.16657 | 1899 ft | 150 kts | 162° |
| 2026-05-07 06:32 | 41.23625 | -70.15741 | 2578 ft | 173 kts | 137° |
| 2026-05-07 06:32 | 41.22480 | -70.14736 | 1905 ft | 212 kts | 149° |
| 2026-05-07 06:32 | 41.21298 | -70.13629 | 1367 ft | 194 kts | 148° |
| 2026-05-07 06:32 | 41.20306 | -70.12659 | 2096 ft | 165 kts | 147° |
| 2026-05-07 06:33 | 41.19344 | -70.11794 | 2733 ft | 170 kts | 152° |
| 2026-05-07 06:33 | 41.18278 | -70.11090 | 3134 ft | 175 kts | 163° |
| 2026-05-07 06:33 | 41.17064 | -70.10834 | 3258 ft | 181 kts | 185° |
| 2026-05-07 06:33 | 41.15795 | -70.11114 | 3152 ft | 188 kts | 191° |
| 2026-05-07 06:34 | 41.14489 | -70.10995 | 3155 ft | 191 kts | 173° |
| 2026-05-07 06:34 | 41.13536 | -70.09862 | 3270 ft | 187 kts | 122° |
| 2026-05-07 06:34 | 41.13430 | -70.08129 | 3309 ft | 199 kts | 84° |
| 2026-05-07 06:34 | 41.13677 | -70.06322 | 3114 ft | 205 kts | 77° |
| 2026-05-07 06:35 | 41.14086 | -70.04527 | 2979 ft | 208 kts | 79° |
| 2026-05-07 06:35 | 41.14542 | -70.02556 | 2788 ft | 238 kts | 74° |
| 2026-05-07 06:35 | 41.15631 | -70.00798 | 2212 ft | 254 kts | 41° |
| 2026-05-07 06:35 | 41.17228 | -70.00008 | 1173 ft | 240 kts | 352° |
| 2026-05-07 06:36 | 41.18664 | -70.00687 | 574 ft | 213 kts | 309° |
| 2026-05-07 06:36 | 41.18931 | -70.02154 | 303 ft | 142 kts | 230° |
| 2026-05-07 06:36 | 41.18128 | -70.02560 | 139 ft | 124 kts | 188° |
| 2026-05-07 06:36 | 41.17926 | -70.02579 | 123 ft | 124 kts | 187° |
| 2026-05-07 06:37 | 41.17925 | -70.02568 | 123 ft | 0 kts | 187° |
| 2026-05-07 06:37 | 41.17877 | -70.02575 | 105 ft | 123 kts | 188° |
| 2026-05-07 06:37 | 41.17289 | -70.02369 | 275 ft | 101 kts | 119° |
| 2026-05-07 06:37 | 41.17523 | -70.01700 | 235 ft | 39 kts | 50° |
| 2026-05-07 06:38 | 41.17631 | -70.01632 | 115 ft | 3 kts | 45° |
| 2026-05-07 06:38 | 41.17680 | -70.01818 | 283 ft | 54 kts | 271° |
| 2026-05-07 06:38 | 41.17820 | -70.02379 | 394 ft | 47 kts | 266° |
| 2026-05-07 06:38 | 41.17785 | -70.02567 | 655 ft | 18 kts | 252° |
| 2026-05-07 06:39 | 41.17947 | -70.02663 | 650 ft | 33 kts | 253° |
| 2026-05-07 06:39 | 41.18209 | -70.02798 | 641 ft | 47 kts | 253° |
| 2026-05-07 06:39 | 41.18534 | -70.02947 | 718 ft | 40 kts | 227° |
| 2026-05-07 06:39 | 41.18589 | -70.02988 | 638 ft | 27 kts | 162° |
| 2026-05-07 06:40 | 41.18128 | -70.02710 | 223 ft | 108 kts | 158° |
| 2026-05-07 06:40 | 41.17804 | -70.02371 | 385 ft | 13 kts | 256° |
| 2026-05-07 06:40 | 41.17805 | -70.02396 | 289 ft | 1 kts | 238° |
| 2026-05-07 06:40 | 41.17785 | -70.02409 | 169 ft | 3 kts | 242° |
| 2026-05-07 06:41 | 41.17790 | -70.02427 | 37 ft | 3 kts | 301° |
| 2026-05-07 06:41 | 41.17803 | -70.02441 | 20 ft | 2 kts | 297° |
| 2026-05-07 06:43 | 41.17807 | -70.02437 | 37 ft | 0 kts | 298° |
| 2026-05-07 06:43 | 41.17817 | -70.02435 | 90 ft | 2 kts | 299° |
| 2026-05-07 06:43 | 41.17818 | -70.02432 | 128 ft | 0 kts | 199° |
| 2026-05-07 06:43 | 41.17811 | -70.02430 | 31 ft | 1 kts | 204° |
| 2026-05-07 06:44 | 41.17808 | -70.02440 | 30 ft | 1 kts | 204° |
| 2026-05-07 06:44 | 41.17808 | -70.02438 | 31 ft | 0 kts | 204° |
| 2026-05-07 06:44 | 41.17809 | -70.02438 | 43 ft | 0 kts | 198° |
| 2026-05-07 06:44 | 41.17809 | -70.02437 | 69 ft | 1 kts | 198° |
| 2026-05-07 06:45 | 41.17804 | -70.02438 | 29 ft | 1 kts | 198° |
| 2026-05-07 06:47 | 41.17782 | -70.02423 | 132 ft | 3 kts | 277° |
| 2026-05-07 06:47 | 41.17956 | -70.02359 | 247 ft | 101 kts | 17° |
| 2026-05-07 06:47 | 41.18658 | -70.02133 | 1124 ft | 88 kts | 17° |
| 2026-05-07 06:47 | 41.19298 | -70.01812 | 1727 ft | 122 kts | 16° |
| 2026-05-07 06:48 | 41.20272 | -70.01259 | 2320 ft | 179 kts | 18° |
| 2026-05-07 06:48 | 41.21472 | -70.00584 | 1910 ft | 174 kts | 14° |
| 2026-05-07 06:48 | 41.22405 | -70.00177 | 1718 ft | 122 kts | 347° |
| 2026-05-07 06:48 | 41.23199 | -70.00277 | 1759 ft | 108 kts | 317° |
| 2026-05-07 06:49 | 41.23909 | -70.00879 | 1075 ft | 139 kts | 294° |
| 2026-05-07 06:49 | 41.24414 | -70.01957 | 471 ft | 128 kts | 284° |
| 2026-05-07 06:49 | 41.24729 | -70.02984 | 449 ft | 114 kts | 277° |
| 2026-05-07 06:49 | 41.24969 | -70.03980 | 427 ft | 116 kts | 277° |
| 2026-05-07 06:50 | 41.25202 | -70.05080 | 162 ft | 124 kts | 275° |
| 2026-05-07 06:50 | 41.25396 | -70.05910 | 148 ft | 67 kts | 270° |
| 2026-05-07 06:50 | 41.25466 | -70.06235 | 85 ft | 10 kts | 285° |
| 2026-05-07 06:50 | 41.25475 | -70.06409 | 110 ft | 48 kts | 258° |
| 2026-05-07 06:51 | 41.25439 | -70.06684 | 58 ft | 5 kts | 219° |
| 2026-05-07 06:51 | 41.25436 | -70.06674 | 47 ft | 0 kts | 218° |
| 2026-05-07 06:53 | 25.90731 | -80.27619 | 47 ft | 0 kts | 300° |